createdAt,value
2022-08-22T00:03:03.231Z,16.00
2022-08-22T00:03:03.387Z,15.80
2022-08-22T00:03:10.286Z,15.90
2022-08-22T05:03:02.712Z,14.00
2022-08-22T05:05:39.532Z,13.96
2022-08-22T05:08:17.002Z,13.98
2022-08-22T05:11:11.342Z,13.90
2022-08-22T05:13:56.779Z,13.90
2022-08-22T05:16:37.661Z,13.90
2022-08-22T05:19:27.076Z,13.90
2022-08-22T05:21:58.059Z,13.90
2022-08-22T05:24:46.611Z,13.90
2022-08-22T05:27:29.843Z,13.90
2022-08-22T05:30:16.112Z,13.80
2022-08-22T05:33:21.079Z,13.80
2022-08-22T05:36:05.023Z,13.80
2022-08-22T05:38:44.161Z,13.80
2022-08-22T05:41:21.737Z,13.80
2022-08-22T05:43:51.480Z,13.70
2022-08-22T05:46:42.560Z,13.70
2022-08-22T05:50:09.115Z,13.70
2022-08-22T05:53:00.950Z,13.60
2022-08-22T05:55:33.020Z,13.60
2022-08-22T05:58:44.402Z,13.60
2022-08-22T06:01:24.582Z,13.60
2022-08-22T06:04:14.335Z,13.60
2022-08-22T06:07:04.782Z,13.60
2022-08-22T06:09:46.942Z,13.60
2022-08-22T06:12:45.004Z,13.60
2022-08-22T06:15:27.443Z,13.60
2022-08-22T06:18:05.466Z,13.60
2022-08-22T06:21:26.220Z,13.60
2022-08-22T06:24:02.520Z,13.60
2022-08-22T06:26:47.119Z,13.68
2022-08-22T06:29:37.855Z,13.70
2022-08-22T06:32:44.578Z,13.70
2022-08-22T06:35:55.722Z,13.70
2022-08-22T06:38:34.636Z,13.70
2022-08-22T06:41:08.419Z,13.70
2022-08-22T06:43:44.122Z,13.72
2022-08-22T06:46:16.808Z,13.80
2022-08-22T06:48:46.594Z,13.80
2022-08-22T06:51:18.596Z,13.86
2022-08-22T06:53:55.738Z,13.90
2022-08-22T06:56:40.192Z,13.90
2022-08-22T06:59:15.754Z,13.90
2022-08-22T07:02:04.263Z,14.00
2022-08-22T07:04:37.260Z,14.00
2022-08-22T07:07:07.297Z,14.00
2022-08-22T07:09:38.818Z,14.00
2022-08-22T07:12:16.576Z,14.10
2022-08-22T07:14:52.917Z,14.10
2022-08-22T07:17:30.799Z,14.12
2022-08-22T07:20:26.652Z,14.20
2022-08-22T07:23:14.575Z,14.20
2022-08-22T07:26:14.921Z,14.30
2022-08-22T08:07:13.172Z,14.84
2022-08-22T08:09:55.343Z,14.82
2022-08-22T08:12:39.443Z,14.86
2022-08-22T08:15:20.973Z,14.90
2022-08-22T08:18:05.093Z,14.90
2022-08-22T08:20:37.594Z,14.96
2022-08-22T08:23:11.394Z,15.00
2022-08-22T08:26:36.212Z,15.00
2022-08-22T08:29:08.772Z,15.00
2022-08-22T08:31:43.355Z,15.00
2022-08-22T08:57:06.257Z,15.62
2022-08-22T09:00:50.865Z,15.78
2022-08-22T09:04:47.940Z,15.72
2022-08-22T09:08:31.967Z,15.70
2022-08-22T09:12:05.547Z,15.70
2022-08-22T09:15:34.318Z,15.70
2022-08-22T09:18:26.961Z,15.72
2022-08-22T09:21:52.880Z,15.70
2022-08-22T09:24:37.816Z,15.70
2022-08-22T09:32:21.737Z,15.70
2022-08-22T09:35:41.925Z,15.70
2022-08-22T09:38:47.824Z,15.70
2022-08-22T09:41:53.122Z,15.80
2022-08-22T09:45:00.007Z,15.80
2022-08-22T09:47:41.795Z,15.80
2022-08-22T09:51:33.339Z,15.80
2022-08-22T09:54:46.267Z,15.90
2022-08-22T09:57:31.621Z,15.90
2022-08-22T10:00:12.926Z,15.90
2022-08-22T10:03:27.786Z,16.00
2022-08-22T10:06:09.184Z,16.00
2022-08-22T10:08:46.914Z,16.00
2022-08-22T10:11:33.386Z,16.00
2022-08-22T10:17:41.049Z,16.06
2022-08-22T11:14:38.275Z,16.60
2022-08-22T11:21:27.936Z,16.60
2022-08-22T11:25:08.407Z,16.60
2022-08-22T11:29:28.221Z,16.68
2022-08-22T11:32:33.155Z,16.70
2022-08-22T11:35:26.823Z,16.70
2022-08-22T11:38:03.091Z,16.70
2022-08-22T11:40:42.556Z,16.76
2022-08-22T11:43:49.114Z,16.80
2022-08-22T11:46:43.816Z,16.80
2022-08-22T11:49:48.795Z,16.80
2022-08-22T11:52:37.514Z,16.80
2022-08-22T11:55:34.662Z,16.70
2022-08-22T11:59:40.018Z,16.70
2022-08-22T12:03:23.255Z,16.70
2022-08-22T12:06:21.827Z,16.60
2022-08-22T12:08:50.853Z,16.60
2022-08-22T12:11:32.415Z,16.60
2022-08-22T12:14:38.173Z,16.64
2022-08-22T12:17:51.033Z,16.70
2022-08-22T12:20:45.725Z,16.68
2022-08-22T12:23:43.226Z,16.64
2022-08-22T12:27:09.794Z,16.70
2022-08-22T12:30:05.405Z,16.64
2022-08-22T12:33:03.088Z,16.70
2022-08-22T12:41:46.516Z,16.62
2022-08-22T12:45:09.730Z,16.60
2022-08-22T12:48:32.518Z,16.60
2022-08-22T12:51:51.954Z,16.64
2022-08-22T12:54:43.578Z,16.60
2022-08-22T13:02:16.956Z,16.70
2022-08-22T13:05:09.244Z,16.70
2022-08-22T13:07:49.891Z,16.70
2022-08-22T13:10:44.889Z,16.80
2022-08-22T13:13:37.237Z,16.80
2022-08-22T13:16:15.636Z,16.80
2022-08-22T13:19:00.962Z,16.80
2022-08-22T13:21:50.223Z,16.80
2022-08-22T13:24:52.851Z,16.80
2022-08-22T13:31:51.522Z,16.80
2022-08-22T13:34:40.575Z,16.90
2022-08-22T13:37:20.284Z,16.90
2022-08-22T13:40:00.741Z,16.92
2022-08-22T13:43:02.567Z,17.00
2022-08-22T13:45:34.392Z,17.00
2022-08-22T13:48:15.101Z,17.00
2022-08-22T13:51:16.122Z,17.02
2022-08-22T13:54:17.781Z,17.10
2022-08-22T13:57:24.632Z,17.10
2022-08-22T14:00:59.212Z,17.10
2022-08-22T14:03:48.465Z,17.10
2022-08-22T14:06:37.276Z,17.10
2022-08-22T14:09:36.428Z,17.10
2022-08-22T14:12:13.628Z,17.10
2022-08-22T14:14:49.752Z,17.20
2022-08-22T14:17:30.654Z,17.20
2022-08-22T14:20:11.005Z,17.20
2022-08-22T14:22:57.336Z,17.20
2022-08-22T14:25:33.981Z,17.20
2022-08-22T14:28:20.279Z,17.20
2022-08-22T14:31:20.013Z,17.30
2022-08-22T14:34:17.507Z,17.30
2022-08-22T14:37:32.229Z,17.30
2022-08-22T14:40:26.205Z,17.30
2022-08-22T14:43:31.961Z,17.30
2022-08-22T14:46:14.026Z,17.34
2022-08-22T14:49:18.403Z,17.34
2022-08-22T14:52:19.874Z,17.30
2022-08-22T14:54:48.487Z,17.30
2022-08-22T14:57:19.936Z,17.30
2022-08-22T14:59:54.608Z,17.28
2022-08-22T15:02:33.681Z,17.30
2022-08-22T15:05:22.721Z,17.30
2022-08-22T15:07:59.119Z,17.40
2022-08-22T15:10:34.260Z,17.40
2022-08-22T15:13:07.706Z,17.48
2022-08-22T15:15:54.274Z,17.42
2022-08-22T15:18:23.714Z,17.40
2022-08-22T15:21:12.312Z,17.40
2022-08-22T15:23:46.922Z,17.40
2022-08-22T15:26:28.302Z,17.40
2022-08-22T15:29:16.318Z,17.40
2022-08-22T15:31:47.947Z,17.40
2022-08-22T15:34:35.909Z,17.30
2022-08-22T15:37:20.059Z,17.34
2022-08-22T15:40:34.109Z,17.30
2022-08-22T15:43:44.156Z,17.30
2022-08-22T15:46:31.896Z,17.30
2022-08-22T15:49:20.340Z,17.30
2022-08-22T15:52:05.312Z,17.30
2022-08-22T15:55:22.644Z,17.30
2022-08-22T15:58:20.303Z,17.32
2022-08-22T16:01:20.656Z,17.40
2022-08-22T16:04:07.439Z,17.40
2022-08-22T16:06:57.925Z,17.42
2022-08-22T16:09:50.747Z,17.50
2022-08-22T16:12:27.063Z,17.50
2022-08-22T16:14:56.072Z,17.50
2022-08-22T16:17:46.052Z,17.50
2022-08-22T16:20:22.115Z,17.50
2022-08-22T16:22:57.249Z,17.40
2022-08-22T16:25:48.846Z,17.40
2022-08-22T16:29:00.355Z,17.40
2022-08-22T16:31:57.599Z,17.30
2022-08-22T16:49:32.020Z,17.62
2022-08-22T16:52:22.286Z,17.70
2022-08-22T16:55:26.714Z,17.60
2022-08-22T16:58:21.817Z,17.60
2022-08-22T17:01:52.038Z,17.50
2022-08-22T17:04:46.727Z,17.42
2022-08-22T17:08:14.767Z,17.40
2022-08-22T17:11:48.942Z,17.40
2022-08-22T17:15:36.095Z,17.30
2022-08-22T17:18:48.238Z,17.30
2022-08-22T17:21:59.497Z,17.22
2022-08-22T17:25:27.456Z,17.20
2022-08-22T17:28:20.803Z,17.20
2022-08-22T17:31:20.013Z,17.20
2022-08-22T17:38:14.308Z,17.20
2022-08-22T17:45:25.732Z,17.20
2022-08-22T17:52:23.114Z,17.20
2022-08-22T17:55:15.040Z,17.20
2022-08-22T17:58:37.463Z,17.12
2022-08-22T18:01:35.927Z,17.10
2022-08-22T18:04:23.516Z,17.10
2022-08-22T18:08:06.378Z,17.10
2022-08-22T18:10:51.617Z,17.10
2022-08-22T18:13:44.031Z,17.10
2022-08-22T18:16:27.096Z,17.10
2022-08-22T18:19:24.226Z,17.10
2022-08-22T18:22:09.495Z,17.10
2022-08-22T18:28:45.043Z,17.10
2022-08-22T18:32:11.004Z,17.10
2022-08-22T18:35:06.217Z,17.06
2022-08-22T18:38:40.469Z,17.02
2022-08-22T18:41:34.933Z,17.00
2022-08-22T18:44:24.566Z,17.00
2022-08-22T18:47:27.106Z,17.00
2022-08-22T18:50:00.156Z,17.00
2022-08-22T18:52:40.008Z,17.00
2022-08-22T18:55:42.705Z,16.90
2022-08-22T18:58:36.083Z,16.90
2022-08-22T19:01:48.722Z,16.90
2022-08-22T19:05:06.531Z,16.90
2022-08-22T19:08:00.197Z,16.90
2022-08-22T19:11:08.011Z,16.90
2022-08-22T19:14:27.284Z,16.96
2022-08-22T19:17:59.205Z,16.90
2022-08-22T19:20:53.546Z,16.96
2022-08-22T19:23:32.463Z,16.90
2022-08-22T19:26:32.174Z,16.90
2022-08-22T19:29:16.864Z,16.90
2022-08-22T19:32:13.107Z,16.90
2022-08-22T19:34:46.994Z,16.90
2022-08-22T19:37:33.225Z,16.90
2022-08-22T19:40:10.372Z,16.90
2022-08-22T19:42:42.946Z,16.90
2022-08-22T19:45:29.281Z,16.90
2022-08-22T19:48:14.084Z,16.88
2022-08-22T19:50:46.173Z,16.82
2022-08-22T19:54:01.676Z,16.80
2022-08-22T19:56:52.050Z,16.80
2022-08-22T19:59:50.958Z,16.80
2022-08-22T20:02:56.122Z,16.80
2022-08-22T20:05:47.363Z,16.80
2022-08-22T20:08:56.852Z,16.80
2022-08-22T20:11:37.798Z,16.80
2022-08-22T20:14:30.089Z,16.80
2022-08-22T20:17:13.736Z,16.80
2022-08-22T20:20:35.083Z,16.80
2022-08-22T20:23:27.168Z,16.80
2022-08-22T20:25:59.557Z,16.80
2022-08-22T20:28:40.302Z,16.80
2022-08-22T20:31:27.116Z,16.80
2022-08-22T20:34:02.949Z,16.80
2022-08-22T20:36:32.575Z,16.80
2022-08-22T20:39:18.248Z,16.80
2022-08-22T20:42:02.586Z,16.80
2022-08-22T20:45:12.094Z,16.78
2022-08-22T20:47:50.575Z,16.80
2022-08-22T20:50:25.526Z,16.70
2022-08-22T20:53:22.050Z,16.70
2022-08-22T20:55:55.340Z,16.70
2022-08-22T20:58:37.576Z,16.70
2022-08-22T21:01:10.107Z,16.70
2022-08-22T21:03:50.563Z,16.70
2022-08-22T21:06:34.966Z,16.70
2022-08-22T21:09:39.361Z,16.70
2022-08-22T21:12:10.709Z,16.70
2022-08-22T21:14:46.355Z,16.70
2022-08-22T21:17:29.186Z,16.70
2022-08-22T21:20:22.117Z,16.70
2022-08-22T21:22:50.611Z,16.70
2022-08-22T21:25:18.369Z,16.70
2022-08-22T21:27:48.889Z,16.70
2022-08-22T21:30:28.261Z,16.70
2022-08-22T21:32:57.482Z,16.70
2022-08-22T21:35:33.130Z,16.70
2022-08-22T21:38:26.215Z,16.70
2022-08-22T21:41:04.258Z,16.70
2022-08-22T21:43:38.580Z,16.70
2022-08-22T21:46:08.701Z,16.70
2022-08-22T21:49:02.686Z,16.70
2022-08-22T21:51:46.106Z,16.70
2022-08-22T21:54:26.056Z,16.72
2022-08-22T21:57:20.236Z,16.70
